createdAt,value
2018-11-05T00:01:17.487Z,19.37
2018-11-05T00:03:45.562Z,18.17
2018-11-05T00:06:13.369Z,18.70
2018-11-05T00:08:41.005Z,20.13
2018-11-05T00:11:08.847Z,19.60
2018-11-05T00:13:36.720Z,18.97
2018-11-05T00:16:04.494Z,19.10
2018-11-05T00:18:32.319Z,16.33
2018-11-05T00:21:00.377Z,17.93
2018-11-05T00:23:28.058Z,16.20
2018-11-05T00:25:56.070Z,16.00
2018-11-05T00:28:23.901Z,19.10
2018-11-05T00:30:51.611Z,19.83
2018-11-05T00:33:19.301Z,19.70
2018-11-05T00:35:46.988Z,18.00
2018-11-05T00:38:14.709Z,17.63
2018-11-05T00:40:42.366Z,18.50
2018-11-05T00:43:10.326Z,17.53
2018-11-05T00:45:38.186Z,17.87
2018-11-05T00:48:06.110Z,17.83
2018-11-05T00:50:34.238Z,16.87
2018-11-05T00:53:02.423Z,19.30
2018-11-05T00:55:30.561Z,16.53
2018-11-05T00:57:58.373Z,15.40
2018-11-05T01:00:26.361Z,16.63
2018-11-05T01:02:54.221Z,16.13
2018-11-05T01:05:22.310Z,15.63
2018-11-05T01:07:50.281Z,17.73
2018-11-05T01:10:18.394Z,16.40
2018-11-05T01:12:46.462Z,17.23
2018-11-05T01:15:15.500Z,17.60
2018-11-05T01:17:43.181Z,15.13
2018-11-05T01:20:12.355Z,17.37
2018-11-05T01:22:40.441Z,16.57
2018-11-05T01:25:08.287Z,17.47
2018-11-05T01:27:36.665Z,16.60
2018-11-05T01:30:07.096Z,18.30
2018-11-05T01:32:35.318Z,14.17
2018-11-05T01:35:04.152Z,16.03
2018-11-05T01:37:32.052Z,16.93
2018-11-05T01:39:59.852Z,17.10
2018-11-05T01:42:28.061Z,17.23
2018-11-05T01:44:56.055Z,16.50
2018-11-05T01:47:24.414Z,16.77
2018-11-05T01:49:52.505Z,15.60
2018-11-05T01:52:20.615Z,16.40
2018-11-05T01:54:48.517Z,15.53
2018-11-05T01:57:16.383Z,14.97
2018-11-05T01:59:44.082Z,14.10
2018-11-05T02:02:11.805Z,14.23
2018-11-05T02:04:39.591Z,16.10
2018-11-05T02:07:07.312Z,13.77
2018-11-05T02:09:35.152Z,14.07
2018-11-05T02:12:02.876Z,13.90
2018-11-05T02:14:30.594Z,12.43
2018-11-05T02:16:58.725Z,13.70
2018-11-05T02:19:26.669Z,14.00
2018-11-05T02:21:55.625Z,15.77
2018-11-05T02:24:23.888Z,13.63
2018-11-05T02:26:51.958Z,14.93
2018-11-05T02:29:19.996Z,14.30
2018-11-05T02:31:47.729Z,13.73
2018-11-05T02:34:15.941Z,14.63
2018-11-05T02:36:44.116Z,17.50
2018-11-05T02:39:12.521Z,16.23
2018-11-05T02:41:40.547Z,15.03
2018-11-05T02:44:08.550Z,16.10
2018-11-05T02:46:36.702Z,15.50
2018-11-05T02:49:04.569Z,15.97
2018-11-05T02:51:32.603Z,16.33
2018-11-05T02:54:00.636Z,16.87
2018-11-05T02:56:28.678Z,16.33
2018-11-05T02:58:56.849Z,17.60
2018-11-05T03:01:25.042Z,18.40
2018-11-05T03:03:52.894Z,16.60
2018-11-05T03:06:20.673Z,19.23
2018-11-05T03:08:48.751Z,16.10
2018-11-05T03:11:16.733Z,18.90
2018-11-05T03:13:44.508Z,20.20
2018-11-05T03:16:12.306Z,21.53
2018-11-05T03:18:40.298Z,17.50
2018-11-05T03:21:08.134Z,18.33
2018-11-05T03:23:35.924Z,16.83
2018-11-05T03:26:03.819Z,18.60
2018-11-05T03:28:32.030Z,16.30
2018-11-05T03:30:59.754Z,16.80
2018-11-05T03:33:27.645Z,17.00
2018-11-05T03:35:55.659Z,17.77
2018-11-05T03:38:23.818Z,16.27
2018-11-05T03:40:51.870Z,18.00
2018-11-05T03:43:19.808Z,17.57
2018-11-05T03:45:47.711Z,17.63
2018-11-05T03:48:15.810Z,19.53
2018-11-05T03:50:43.889Z,18.07
2018-11-05T03:53:11.864Z,16.97
2018-11-05T03:55:40.689Z,18.67
2018-11-05T03:58:08.838Z,19.70
2018-11-05T04:00:37.159Z,18.10
2018-11-05T04:03:05.368Z,18.43
2018-11-05T04:05:33.325Z,18.13
2018-11-05T04:08:01.034Z,18.37
2018-11-05T04:10:28.870Z,16.73
2018-11-05T04:12:56.958Z,18.10
2018-11-05T04:15:24.752Z,17.43
2018-11-05T04:17:52.618Z,19.63
2018-11-05T04:20:20.890Z,19.40
2018-11-05T04:22:48.948Z,16.33
2018-11-05T04:25:16.816Z,19.33
2018-11-05T04:27:44.890Z,18.10
2018-11-05T04:30:13.853Z,17.40
2018-11-05T04:32:42.282Z,21.43
2018-11-05T04:35:10.967Z,20.50
2018-11-05T04:37:38.971Z,18.80
2018-11-05T04:40:07.758Z,17.83
2018-11-05T04:42:41.761Z,19.77
2018-11-05T04:45:12.164Z,21.20
2018-11-05T04:47:40.661Z,17.37
2018-11-05T04:50:09.892Z,19.97
2018-11-05T04:52:38.357Z,21.30
2018-11-05T04:55:06.179Z,21.90
2018-11-05T04:57:34.239Z,18.63
2018-11-05T05:00:18.333Z,19.10
2018-11-05T05:02:46.445Z,18.20
2018-11-05T05:05:15.437Z,16.43
2018-11-05T05:07:43.569Z,20.23
2018-11-05T05:10:11.673Z,18.63
2018-11-05T05:12:40.699Z,21.10
2018-11-05T05:15:09.473Z,20.57
2018-11-05T05:17:38.266Z,18.80
2018-11-05T05:20:08.471Z,18.60
2018-11-05T05:22:36.342Z,17.63
2018-11-05T05:25:04.352Z,19.57
2018-11-05T05:27:32.283Z,19.23
2018-11-05T05:30:00.273Z,19.27
2018-11-05T05:32:28.295Z,19.60
2018-11-05T05:34:56.120Z,19.33
2018-11-05T05:37:24.037Z,19.83
2018-11-05T05:39:51.740Z,17.87
2018-11-05T05:42:19.407Z,20.60
2018-11-05T05:44:47.036Z,19.70
2018-11-05T05:47:14.903Z,19.40
2018-11-05T05:49:42.589Z,18.90
2018-11-05T05:52:10.309Z,19.97
2018-11-05T05:54:37.935Z,17.83
2018-11-05T05:57:05.585Z,17.03
2018-11-05T05:59:33.217Z,16.77
2018-11-05T06:02:00.834Z,18.27
2018-11-05T06:04:28.494Z,16.87
2018-11-05T06:06:56.246Z,17.13
2018-11-05T06:09:23.892Z,17.67
2018-11-05T06:11:51.504Z,19.97
2018-11-05T06:14:19.144Z,17.83
2018-11-05T06:16:46.725Z,18.30
2018-11-05T06:19:14.388Z,16.00
2018-11-05T06:21:42.083Z,16.50
2018-11-05T06:24:09.738Z,17.03
2018-11-05T06:26:37.400Z,17.90
2018-11-05T06:29:05.066Z,16.00
2018-11-05T06:31:32.742Z,18.13
2018-11-05T06:34:00.402Z,17.43
2018-11-05T06:36:28.011Z,16.13
2018-11-05T06:38:55.669Z,17.20
2018-11-05T06:41:23.394Z,15.70
2018-11-05T06:43:51.041Z,16.50
2018-11-05T06:46:18.725Z,15.80
2018-11-05T06:48:46.370Z,16.80
2018-11-05T06:51:14.081Z,17.37
2018-11-05T06:53:41.763Z,17.97
2018-11-05T06:56:09.378Z,16.87
2018-11-05T06:58:37.062Z,16.40
2018-11-05T07:01:05.055Z,16.37
2018-11-05T07:03:32.721Z,17.30
2018-11-05T07:06:00.589Z,16.47
2018-11-05T07:08:28.280Z,16.13
2018-11-05T07:10:55.989Z,16.83
2018-11-05T07:13:23.761Z,17.67
2018-11-05T07:15:51.406Z,15.80
2018-11-05T07:18:19.213Z,16.37
2018-11-05T07:20:46.786Z,16.70
2018-11-05T07:23:14.441Z,16.20
2018-11-05T07:25:42.090Z,16.67
2018-11-05T07:28:09.812Z,16.30
2018-11-05T07:30:37.601Z,14.97
2018-11-05T07:33:05.441Z,17.30
2018-11-05T07:35:33.386Z,16.67
2018-11-05T07:38:01.246Z,16.10
2018-11-05T07:40:28.924Z,17.40
2018-11-05T07:42:56.589Z,17.03
2018-11-05T07:45:24.462Z,16.17
2018-11-05T07:47:52.232Z,16.57
2018-11-05T07:50:20.838Z,16.50
2018-11-05T07:52:48.865Z,16.37
2018-11-05T07:55:17.599Z,17.00
2018-11-05T07:57:46.638Z,17.37
2018-11-05T08:00:20.773Z,16.80
2018-11-05T08:02:49.667Z,16.60
2018-11-05T08:05:18.562Z,16.40
2018-11-05T08:07:46.781Z,17.33
2018-11-05T08:10:14.562Z,17.77
2018-11-05T08:12:42.449Z,15.43
2018-11-05T08:15:12.772Z,15.90
2018-11-05T08:17:41.356Z,16.63
2018-11-05T08:20:09.494Z,17.87
2018-11-05T08:22:37.369Z,16.57
2018-11-05T08:25:05.264Z,17.10
2018-11-05T08:27:33.076Z,17.57
2018-11-05T08:30:00.850Z,18.07
2018-11-05T08:32:28.499Z,16.90
2018-11-05T08:34:56.218Z,18.27
2018-11-05T08:37:23.906Z,14.57
2018-11-05T08:39:51.581Z,15.80
2018-11-05T08:42:19.270Z,15.37
2018-11-05T08:44:46.982Z,15.00
2018-11-05T08:47:14.713Z,14.80
2018-11-05T08:49:42.871Z,14.90
2018-11-05T08:52:10.814Z,15.47
2018-11-05T08:54:39.885Z,17.03
2018-11-05T08:57:07.641Z,15.80
2018-11-05T08:59:36.055Z,15.57
2018-11-05T09:02:04.116Z,14.47
2018-11-05T09:04:31.850Z,15.57
2018-11-05T09:06:59.701Z,16.63
2018-11-05T09:09:27.473Z,16.43
2018-11-05T09:11:55.397Z,14.73
2018-11-05T09:14:23.200Z,17.17
2018-11-05T09:16:51.053Z,17.80
2018-11-05T09:19:18.932Z,17.10
2018-11-05T09:21:46.613Z,16.20
2018-11-05T09:24:14.620Z,16.83
2018-11-05T09:26:42.730Z,16.57
2018-11-05T09:29:10.502Z,15.40
2018-11-05T09:31:38.413Z,16.70
2018-11-05T09:34:06.039Z,15.13
2018-11-05T09:36:34.036Z,16.00
2018-11-05T09:39:01.871Z,18.07
2018-11-05T09:41:29.739Z,15.83
2018-11-05T09:43:57.927Z,17.57
2018-11-05T09:46:25.906Z,18.00
2018-11-05T09:48:53.616Z,17.60
2018-11-05T09:51:21.282Z,17.40
2018-11-05T09:53:49.063Z,17.63
2018-11-05T09:56:17.274Z,18.33
2018-11-05T09:58:44.962Z,16.77
2018-11-05T10:01:12.641Z,18.07
2018-11-05T10:03:45.885Z,15.73
2018-11-05T10:06:13.411Z,19.23
2018-11-05T10:08:41.196Z,18.60
2018-11-05T10:11:09.061Z,16.93
2018-11-05T10:13:36.829Z,17.60
2018-11-05T10:16:05.041Z,16.00
2018-11-05T10:18:32.769Z,16.40
2018-11-05T10:21:00.818Z,14.63
2018-11-05T10:23:28.746Z,17.83
2018-11-05T10:25:56.541Z,15.00
2018-11-05T10:28:24.326Z,14.70
2018-11-05T10:30:52.116Z,16.57
2018-11-05T10:33:19.829Z,17.80
2018-11-05T10:35:53.525Z,16.03
2018-11-05T10:38:22.102Z,17.07
2018-11-05T10:40:49.766Z,17.50
2018-11-05T10:43:17.416Z,17.03
2018-11-05T10:45:45.114Z,15.63
2018-11-05T10:48:13.116Z,15.10
2018-11-05T10:50:40.730Z,16.30
2018-11-05T10:53:08.457Z,15.20
2018-11-05T10:55:36.173Z,15.93
2018-11-05T10:58:03.923Z,14.70
2018-11-05T11:00:37.259Z,15.40
2018-11-05T11:03:10.561Z,14.13
2018-11-05T11:05:38.337Z,13.27
2018-11-05T11:08:06.081Z,13.53
2018-11-05T11:10:33.942Z,13.13
2018-11-05T11:13:01.635Z,11.50
2018-11-05T11:15:29.305Z,13.03
2018-11-05T11:17:57.365Z,12.10
2018-11-05T11:20:25.019Z,13.90
2018-11-05T11:22:52.736Z,13.63
2018-11-05T11:25:20.417Z,12.80
2018-11-05T11:27:49.077Z,13.17
2018-11-05T11:30:17.253Z,13.53
2018-11-05T11:32:46.698Z,12.87
2018-11-05T11:35:14.553Z,13.23
2018-11-05T11:37:42.324Z,13.20
2018-11-05T11:40:12.275Z,11.77
2018-11-05T11:42:40.866Z,13.00
2018-11-05T11:45:09.417Z,12.80
2018-11-05T11:47:37.100Z,13.00
2018-11-05T11:50:06.845Z,13.13
2018-11-05T11:52:34.585Z,12.10
2018-11-05T11:55:02.475Z,12.43
2018-11-05T11:57:30.191Z,13.17
2018-11-05T11:59:57.901Z,12.90
2018-11-05T12:02:25.674Z,12.77
2018-11-05T12:04:53.742Z,12.60
2018-11-05T12:07:21.489Z,12.17
2018-11-05T12:09:49.296Z,13.13
2018-11-05T12:12:17.102Z,12.23
2018-11-05T12:14:44.990Z,12.07
2018-11-05T12:17:12.601Z,13.03
2018-11-05T12:19:40.273Z,16.10
2018-11-05T12:22:08.142Z,13.70
2018-11-05T12:24:35.895Z,12.70
2018-11-05T12:27:04.384Z,12.53
2018-11-05T12:29:32.100Z,13.73
2018-11-05T12:31:59.763Z,12.70
2018-11-05T12:34:27.442Z,12.83
2018-11-05T12:36:55.077Z,13.00
2018-11-05T12:39:22.721Z,12.00
2018-11-05T12:41:50.522Z,10.20
2018-11-05T12:44:18.379Z,12.67
2018-11-05T12:46:46.224Z,12.23
2018-11-05T12:49:13.920Z,11.93
2018-11-05T12:51:41.619Z,12.90
2018-11-05T12:54:09.281Z,12.10
2018-11-05T12:56:36.925Z,12.20
2018-11-05T12:59:04.910Z,11.07
2018-11-05T13:01:32.543Z,12.33
2018-11-05T13:04:00.209Z,11.97
2018-11-05T13:06:27.868Z,12.00
2018-11-05T13:08:55.517Z,11.37
2018-11-05T13:11:23.393Z,11.67
2018-11-05T13:13:51.092Z,12.13
2018-11-05T13:16:18.827Z,13.20
2018-11-05T13:18:46.517Z,11.83
2018-11-05T13:21:14.173Z,11.00
2018-11-05T13:23:44.356Z,12.13
2018-11-05T13:26:12.473Z,11.90
2018-11-05T13:28:40.204Z,12.40
2018-11-05T13:31:07.989Z,12.20
2018-11-05T13:33:35.762Z,12.40
2018-11-05T13:36:03.746Z,12.47
2018-11-05T13:38:31.439Z,13.07
2018-11-05T13:40:59.054Z,11.50
2018-11-05T13:43:26.732Z,11.10
2018-11-05T13:45:55.080Z,11.07
2018-11-05T13:48:22.693Z,11.20
2018-11-05T13:50:49.889Z,11.77
2018-11-05T13:53:17.525Z,12.70
2018-11-05T13:55:45.151Z,12.67
2018-11-05T13:58:12.844Z,12.87
2018-11-05T14:00:40.577Z,13.47
2018-11-05T14:03:08.310Z,12.30
2018-11-05T14:05:35.984Z,11.50
2018-11-05T14:08:03.722Z,12.13
2018-11-05T14:10:31.430Z,11.90
2018-11-05T14:12:59.189Z,11.97
2018-11-05T14:15:26.880Z,12.73
2018-11-05T14:17:54.577Z,10.93
2018-11-05T14:20:22.216Z,11.10
2018-11-05T14:22:49.939Z,12.23
2018-11-05T14:25:18.742Z,13.10
2018-11-05T14:27:47.938Z,12.17
2018-11-05T14:30:15.618Z,12.67
2018-11-05T14:32:44.415Z,12.80
2018-11-05T14:35:12.124Z,11.20
2018-11-05T14:37:39.854Z,11.50
2018-11-05T14:40:09.349Z,11.70
2018-11-05T14:42:37.156Z,11.70
2018-11-05T14:45:06.967Z,12.70
2018-11-05T14:47:34.665Z,13.47
2018-11-05T14:50:02.383Z,13.27
2018-11-05T14:52:30.029Z,12.17
2018-11-05T14:54:57.710Z,11.90
2018-11-05T14:57:25.530Z,12.53
2018-11-05T14:59:53.334Z,11.47
2018-11-05T15:02:26.636Z,12.90
2018-11-05T15:04:54.286Z,12.23
2018-11-05T15:07:21.948Z,12.27
2018-11-05T15:09:49.613Z,12.70
2018-11-05T15:12:17.334Z,12.97
2018-11-05T15:14:45.006Z,13.00
2018-11-05T15:17:12.616Z,13.07
2018-11-05T15:19:40.757Z,12.77
2018-11-05T15:22:07.929Z,11.87
2018-11-05T15:24:35.584Z,12.70
2018-11-05T15:27:03.498Z,11.80
2018-11-05T15:29:34.860Z,12.40
2018-11-05T15:32:02.563Z,12.87
2018-11-05T15:34:30.290Z,12.73
2018-11-05T15:36:58.035Z,13.07
2018-11-05T15:39:25.680Z,13.60
2018-11-05T15:41:53.442Z,11.80
2018-11-05T15:44:21.366Z,14.57
2018-11-05T15:46:49.091Z,13.33
2018-11-05T15:49:16.825Z,14.73
2018-11-05T15:51:44.715Z,12.27
2018-11-05T15:54:12.253Z,15.50
2018-11-05T15:56:39.938Z,14.17
2018-11-05T15:59:07.623Z,16.27
2018-11-05T16:01:35.239Z,22.40
2018-11-05T16:04:02.938Z,34.07
2018-11-05T16:06:30.730Z,21.30
2018-11-05T16:08:58.423Z,15.70
2018-11-05T16:11:26.071Z,16.20
2018-11-05T16:13:53.825Z,15.67
2018-11-05T16:16:21.513Z,13.37
2018-11-05T16:18:49.379Z,14.77
2018-11-05T16:21:17.073Z,14.80
2018-11-05T16:23:44.774Z,14.33
2018-11-05T16:26:12.473Z,17.60
2018-11-05T16:28:40.413Z,18.43
2018-11-05T16:31:08.249Z,19.90
2018-11-05T16:33:36.054Z,19.20
2018-11-05T16:36:03.820Z,19.60
2018-11-05T16:38:31.585Z,18.40
2018-11-05T16:40:59.270Z,17.70
2018-11-05T16:43:27.089Z,15.63
2018-11-05T16:45:55.027Z,17.07
2018-11-05T16:48:23.037Z,17.43
2018-11-05T16:50:50.946Z,17.70
2018-11-05T16:53:18.770Z,16.53
2018-11-05T16:55:46.586Z,16.50
2018-11-05T16:58:14.400Z,16.07
2018-11-05T17:00:42.290Z,14.90
2018-11-05T17:03:10.002Z,15.97
2018-11-05T17:05:37.817Z,14.43
2018-11-05T17:08:05.466Z,16.13
2018-11-05T17:10:33.120Z,16.63
2018-11-05T17:13:00.815Z,17.00
2018-11-05T17:15:28.567Z,17.93
2018-11-05T17:17:56.344Z,16.97
2018-11-05T17:20:24.084Z,16.33
2018-11-05T17:22:51.734Z,17.90
2018-11-05T17:25:19.429Z,16.20
2018-11-05T17:27:47.609Z,15.97
2018-11-05T17:30:17.938Z,15.53
2018-11-05T17:32:45.937Z,16.50
2018-11-05T17:35:14.305Z,15.70
2018-11-05T17:37:42.341Z,16.63
2018-11-05T17:40:12.769Z,14.50
2018-11-05T17:42:40.721Z,15.37
2018-11-05T17:45:09.934Z,16.60
2018-11-05T17:47:37.967Z,16.23
2018-11-05T17:50:08.117Z,15.03
2018-11-05T17:52:35.745Z,16.63
2018-11-05T17:55:03.695Z,16.53
2018-11-05T17:57:31.323Z,15.57
2018-11-05T17:59:58.973Z,21.00
2018-11-05T18:02:26.702Z,22.60
2018-11-05T18:04:55.481Z,22.80
2018-11-05T18:07:23.698Z,24.27
2018-11-05T18:09:51.680Z,23.27
2018-11-05T18:12:19.334Z,24.77
2018-11-05T18:14:48.056Z,21.77
2018-11-05T18:17:15.694Z,22.83
2018-11-05T18:19:43.402Z,21.10
2018-11-05T18:22:11.128Z,20.67
2018-11-05T18:24:40.429Z,24.10
2018-11-05T18:27:08.223Z,23.67
2018-11-05T18:29:35.946Z,24.77
2018-11-05T18:32:03.801Z,25.17
2018-11-05T18:34:31.910Z,26.17
2018-11-05T18:36:59.686Z,25.13
2018-11-05T18:39:27.470Z,29.30
2018-11-05T18:42:03.184Z,29.27
2018-11-05T18:44:35.817Z,25.27
2018-11-05T18:47:03.589Z,30.20
2018-11-05T18:49:31.342Z,27.90
2018-11-05T18:51:59.466Z,26.80
2018-11-05T18:54:29.065Z,27.13
2018-11-05T18:56:57.228Z,27.20
2018-11-05T18:59:26.361Z,26.33
2018-11-05T19:01:55.238Z,28.97
2018-11-05T19:04:23.180Z,26.97
2018-11-05T19:06:51.821Z,30.70
2018-11-05T19:09:20.080Z,28.57
2018-11-05T19:11:48.641Z,29.13
2018-11-05T19:14:18.562Z,29.10
2018-11-05T19:16:46.652Z,32.03
2018-11-05T19:19:14.481Z,29.87
2018-11-05T19:21:42.423Z,26.93
2018-11-05T19:24:10.612Z,25.50
2018-11-05T19:26:38.510Z,24.30
2018-11-05T19:29:07.442Z,22.50
2018-11-05T19:31:35.425Z,22.10
2018-11-05T19:34:03.422Z,22.20
2018-11-05T19:36:31.230Z,22.67
2018-11-05T19:38:58.988Z,19.90
2018-11-05T19:41:26.679Z,21.13
2018-11-05T19:43:54.448Z,22.10
2018-11-05T19:46:22.255Z,25.70
2018-11-05T19:48:50.281Z,24.33
2018-11-05T19:51:17.974Z,24.70
2018-11-05T19:53:45.824Z,24.27
2018-11-05T19:56:13.862Z,26.47
2018-11-05T19:58:41.470Z,26.50
2018-11-05T20:01:11.064Z,31.87
2018-11-05T20:03:39.870Z,28.13
2018-11-05T20:06:10.032Z,27.47
2018-11-05T20:08:40.929Z,28.97
2018-11-05T20:11:08.912Z,30.07
2018-11-05T20:13:36.892Z,26.70
2018-11-05T20:16:04.832Z,26.83
2018-11-05T20:18:32.975Z,29.83
2018-11-05T20:21:00.554Z,26.23
2018-11-05T20:23:28.358Z,25.03
2018-11-05T20:25:56.139Z,25.13
2018-11-05T20:28:28.331Z,23.93
2018-11-05T20:30:56.175Z,23.10
2018-11-05T20:33:24.139Z,21.50
2018-11-05T20:35:51.712Z,19.40
2018-11-05T20:38:19.420Z,21.97
2018-11-05T20:40:47.283Z,21.93
2018-11-05T20:43:14.894Z,20.20
2018-11-05T20:45:42.597Z,19.77
2018-11-05T20:48:10.206Z,20.60
2018-11-05T20:50:37.919Z,20.40
2018-11-05T20:53:05.705Z,20.50
2018-11-05T20:55:33.368Z,21.20
2018-11-05T20:58:01.553Z,22.27
2018-11-05T21:00:29.165Z,23.23
2018-11-05T21:02:57.058Z,21.60
2018-11-05T21:05:24.865Z,23.10
2018-11-05T21:07:52.931Z,26.90
2018-11-05T21:10:20.630Z,27.50
2018-11-05T21:12:51.331Z,26.67
2018-11-05T21:15:20.545Z,26.30
2018-11-05T21:17:49.944Z,28.33
2018-11-05T21:20:18.395Z,25.43
2018-11-05T21:22:46.821Z,26.50
2018-11-05T21:25:14.461Z,25.73
2018-11-05T21:27:43.093Z,26.80
2018-11-05T21:30:16.909Z,25.53
2018-11-05T21:32:44.888Z,23.00
2018-11-05T21:35:13.987Z,23.10
2018-11-05T21:37:42.321Z,21.10
2018-11-05T21:40:11.151Z,18.40
2018-11-05T21:42:39.108Z,21.27
2018-11-05T21:45:08.499Z,18.70
2018-11-05T21:47:36.522Z,18.13
2018-11-05T21:50:06.245Z,19.97
2018-11-05T21:52:33.747Z,19.80
2018-11-05T21:55:01.492Z,19.37
2018-11-05T21:57:29.592Z,18.50
2018-11-05T21:59:57.463Z,20.63
2018-11-05T22:02:27.290Z,25.27
2018-11-05T22:04:55.378Z,22.87
2018-11-05T22:07:23.668Z,21.63
2018-11-05T22:09:51.421Z,22.60
2018-11-05T22:12:19.129Z,20.83
2018-11-05T22:14:46.921Z,23.60
2018-11-05T22:17:14.693Z,21.13
2018-11-05T22:19:42.901Z,25.33
2018-11-05T22:22:11.476Z,24.13
2018-11-05T22:24:40.993Z,24.47
2018-11-05T22:27:12.270Z,23.60
2018-11-05T22:29:39.960Z,24.67
2018-11-05T22:32:08.014Z,24.10
2018-11-05T22:34:38.667Z,26.20
2018-11-05T22:37:06.374Z,24.13
2018-11-05T22:39:34.073Z,23.87
2018-11-05T22:42:01.795Z,27.00
2018-11-05T22:44:29.656Z,27.53
2018-11-05T22:46:57.577Z,27.20
2018-11-05T22:49:25.712Z,25.80
2018-11-05T22:51:53.588Z,26.20
2018-11-05T22:54:21.564Z,24.73
2018-11-05T22:56:49.657Z,24.87
2018-11-05T22:59:17.408Z,26.03
2018-11-05T23:01:50.789Z,27.90
2018-11-05T23:04:18.943Z,26.57
2018-11-05T23:06:47.428Z,24.30
2018-11-05T23:09:15.355Z,25.90
2018-11-05T23:11:43.065Z,25.40
2018-11-05T23:14:11.362Z,27.23
2018-11-05T23:16:39.502Z,25.37
2018-11-05T23:19:07.231Z,25.00
2018-11-05T23:21:34.926Z,25.73
2018-11-05T23:24:02.745Z,24.60
2018-11-05T23:26:30.510Z,25.43
2018-11-05T23:28:58.505Z,26.20
2018-11-05T23:31:26.523Z,23.47
2018-11-05T23:33:54.758Z,23.10
2018-11-05T23:36:29.105Z,27.63
2018-11-05T23:38:57.309Z,32.37
2018-11-05T23:41:25.093Z,34.50
2018-11-05T23:43:53.043Z,34.07
2018-11-05T23:46:20.798Z,33.67
2018-11-05T23:48:48.458Z,31.03
2018-11-05T23:51:16.181Z,29.40
2018-11-05T23:53:43.881Z,29.90
2018-11-05T23:56:11.574Z,32.80
2018-11-05T23:58:39.285Z,30.30
